Shallotte, North Carolina
Current Conditions -  °F | °C
As of 3:15 AM on Sunday 26 Oct 2014 (Local Time) from KSUT Reporting Station
Clear Clear  
Wind Chill: 57°   Ceiling: Unl
Heat Index: 57°   Visibility: 10mi
Dew Point: 42°   Wind: 6mph
Humidity: 57%   Direction: 280°W
Pressure: 29.88"   Gusts: NA
Location:  33.97°N, 78.39°W
Report Text: KSUT 260715Z AUTO 28005KT 10SM CLR 14/06 A2988 RMK AO2 T01410056
Loading
Personal Weather Stations






























Interactive Weather Map
Tropical Storm Tracking
New forecast layout! Learn more

10-Day Weather Forecast

Advertisements
Track Severe Weather on mobile